sensor_id;sensor_type;location;lat;lon;timestamp;pressure;altitude;pressure_sealevel;temperature;humidity
73974;BME280;62336;-26.094;27.994;2023-07-31T00:01:35;85427.67;;;17.88;12.54
73974;BME280;62336;-26.094;27.994;2023-07-31T00:04:00;85426.91;;;17.87;12.42
73974;BME280;62336;-26.094;27.994;2023-07-31T00:06:25;85427.15;;;18.06;12.17
73974;BME280;62336;-26.094;27.994;2023-07-31T00:08:50;85425.41;;;17.97;12.50
73974;BME280;62336;-26.094;27.994;2023-07-31T00:11:15;85427.40;;;17.34;12.47
73974;BME280;62336;-26.094;27.994;2023-07-31T00:13:40;85429.89;;;17.26;12.57
73974;BME280;62336;-26.094;27.994;2023-07-31T00:16:05;85431.16;;;17.22;12.50
73974;BME280;62336;-26.094;27.994;2023-07-31T00:18:30;85435.26;;;17.30;12.71
73974;BME280;62336;-26.094;27.994;2023-07-31T00:20:55;85437.59;;;16.84;12.93
73974;BME280;62336;-26.094;27.994;2023-07-31T00:23:20;85437.67;;;17.40;13.10
73974;BME280;62336;-26.094;27.994;2023-07-31T00:25:45;85439.08;;;17.20;13.09
73974;BME280;62336;-26.094;27.994;2023-07-31T00:28:11;85439.99;;;16.84;13.31
73974;BME280;62336;-26.094;27.994;2023-07-31T00:30:36;85440.76;;;16.67;13.21
73974;BME280;62336;-26.094;27.994;2023-07-31T00:33:01;85440.57;;;16.55;13.38
73974;BME280;62336;-26.094;27.994;2023-07-31T00:35:26;85440.31;;;16.18;13.35
73974;BME280;62336;-26.094;27.994;2023-07-31T00:37:51;85437.12;;;16.66;13.15
73974;BME280;62336;-26.094;27.994;2023-07-31T00:40:17;85436.77;;;16.94;13.30
73974;BME280;62336;-26.094;27.994;2023-07-31T00:42:42;85434.00;;;16.64;13.55
73974;BME280;62336;-26.094;27.994;2023-07-31T00:45:07;85428.31;;;16.82;13.81
73974;BME280;62336;-26.094;27.994;2023-07-31T00:47:32;85426.53;;;16.88;13.50
73974;BME280;62336;-26.094;27.994;2023-07-31T00:49:57;85433.98;;;17.28;13.02
73974;BME280;62336;-26.094;27.994;2023-07-31T00:52:22;85436.92;;;16.53;13.20
73974;BME280;62336;-26.094;27.994;2023-07-31T00:54:47;85434.90;;;16.61;13.25
73974;BME280;62336;-26.094;27.994;2023-07-31T00:57:12;85435.46;;;16.40;13.57
73974;BME280;62336;-26.094;27.994;2023-07-31T00:59:38;85433.83;;;16.08;13.80
73974;BME280;62336;-26.094;27.994;2023-07-31T01:02:02;85431.54;;;16.62;13.25
73974;BME280;62336;-26.094;27.994;2023-07-31T01:04:28;85429.98;;;17.66;13.09
73974;BME280;62336;-26.094;27.994;2023-07-31T01:06:59;85427.63;;;17.10;13.09
73974;BME280;62336;-26.094;27.994;2023-07-31T01:09:23;85428.34;;;17.04;13.22
73974;BME280;62336;-26.094;27.994;2023-07-31T01:11:46;85430.85;;;16.48;13.32
73974;BME280;62336;-26.094;27.994;2023-07-31T01:14:07;85428.43;;;16.88;13.10
73974;BME280;62336;-26.094;27.994;2023-07-31T01:16:33;85424.73;;;17.09;12.79
73974;BME280;62336;-26.094;27.994;2023-07-31T01:18:58;85422.46;;;16.93;13.00
73974;BME280;62336;-26.094;27.994;2023-07-31T01:21:37;85426.67;;;16.39;12.99
73974;BME280;62336;-26.094;27.994;2023-07-31T01:26:18;85426.42;;;16.81;12.59
73974;BME280;62336;-26.094;27.994;2023-07-31T01:28:44;85420.74;;;16.81;12.79
73974;BME280;62336;-26.094;27.994;2023-07-31T01:31:07;85419.78;;;17.74;12.50
73974;BME280;62336;-26.094;27.994;2023-07-31T01:33:29;85418.94;;;17.78;12.41
73974;BME280;62336;-26.094;27.994;2023-07-31T01:35:54;85420.66;;;17.40;12.05
73974;BME280;62336;-26.094;27.994;2023-07-31T01:38:21;85422.66;;;17.29;12.32
73974;BME280;62336;-26.094;27.994;2023-07-31T01:40:43;85428.65;;;16.45;12.61
73974;BME280;62336;-26.094;27.994;2023-07-31T01:43:08;85429.83;;;16.31;13.05
73974;BME280;62336;-26.094;27.994;2023-07-31T01:45:34;85426.22;;;16.68;12.54
73974;BME280;62336;-26.094;27.994;2023-07-31T01:47:59;85419.43;;;16.47;12.88
73974;BME280;62336;-26.094;27.994;2023-07-31T01:50:24;85418.39;;;16.48;12.92
73974;BME280;62336;-26.094;27.994;2023-07-31T01:52:49;85414.96;;;16.59;12.84
73974;BME280;62336;-26.094;27.994;2023-07-31T01:55:14;85410.76;;;16.62;12.86
73974;BME280;62336;-26.094;27.994;2023-07-31T01:57:39;85406.48;;;16.93;12.79
73974;BME280;62336;-26.094;27.994;2023-07-31T02:00:05;85399.20;;;17.14;12.63
73974;BME280;62336;-26.094;27.994;2023-07-31T02:02:29;85392.54;;;17.29;12.47
73974;BME280;62336;-26.094;27.994;2023-07-31T02:04:54;85387.80;;;17.13;12.50
73974;BME280;62336;-26.094;27.994;2023-07-31T02:07:19;85390.02;;;17.60;12.42
73974;BME280;62336;-26.094;27.994;2023-07-31T02:09:44;85384.29;;;18.13;12.05
73974;BME280;62336;-26.094;27.994;2023-07-31T02:12:10;85381.56;;;17.53;12.64
73974;BME280;62336;-26.094;27.994;2023-07-31T02:14:35;85387.52;;;16.99;12.54
73974;BME280;62336;-26.094;27.994;2023-07-31T02:17:00;85391.50;;;16.93;12.24
73974;BME280;62336;-26.094;27.994;2023-07-31T02:19:25;85392.73;;;17.23;12.40
73974;BME280;62336;-26.094;27.994;2023-07-31T02:21:50;85387.59;;;17.15;12.09
73974;BME280;62336;-26.094;27.994;2023-07-31T02:24:15;85386.14;;;17.52;12.37
73974;BME280;62336;-26.094;27.994;2023-07-31T02:26:40;85389.21;;;16.97;12.43
73974;BME280;62336;-26.094;27.994;2023-07-31T02:29:05;85389.00;;;17.56;12.21
73974;BME280;62336;-26.094;27.994;2023-07-31T02:31:30;85383.84;;;17.86;12.25
73974;BME280;62336;-26.094;27.994;2023-07-31T02:33:55;85385.53;;;17.18;12.48
73974;BME280;62336;-26.094;27.994;2023-07-31T02:36:20;85383.56;;;18.25;11.94
73974;BME280;62336;-26.094;27.994;2023-07-31T02:38:45;85384.65;;;17.49;12.17
73974;BME280;62336;-26.094;27.994;2023-07-31T02:41:10;85381.64;;;17.30;12.67
73974;BME280;62336;-26.094;27.994;2023-07-31T02:43:36;85380.52;;;17.80;12.12
73974;BME280;62336;-26.094;27.994;2023-07-31T02:46:01;85385.32;;;17.52;12.37
73974;BME280;62336;-26.094;27.994;2023-07-31T02:48:25;85385.12;;;18.26;11.79
73974;BME280;62336;-26.094;27.994;2023-07-31T02:50:51;85387.48;;;17.76;12.08
73974;BME280;62336;-26.094;27.994;2023-07-31T02:53:16;85389.33;;;17.50;12.42
73974;BME280;62336;-26.094;27.994;2023-07-31T02:55:45;85389.10;;;17.79;12.15
73974;BME280;62336;-26.094;27.994;2023-07-31T02:58:16;85391.75;;;17.79;12.15
73974;BME280;62336;-26.094;27.994;2023-07-31T03:00:31;85389.41;;;17.62;12.02
73974;BME280;62336;-26.094;27.994;2023-07-31T03:02:56;85393.70;;;18.25;12.17
73974;BME280;62336;-26.094;27.994;2023-07-31T03:05:22;85390.58;;;18.19;11.99
73974;BME280;62336;-26.094;27.994;2023-07-31T03:07:48;85389.90;;;18.24;11.92
73974;BME280;62336;-26.094;27.994;2023-07-31T03:10:12;85389.25;;;17.15;12.50
73974;BME280;62336;-26.094;27.994;2023-07-31T03:12:38;85395.12;;;17.23;12.28
73974;BME280;62336;-26.094;27.994;2023-07-31T03:15:02;85397.22;;;17.17;12.50
73974;BME280;62336;-26.094;27.994;2023-07-31T03:17:27;85398.92;;;17.61;12.44
73974;BME280;62336;-26.094;27.994;2023-07-31T03:19:52;85399.01;;;17.78;12.19
73974;BME280;62336;-26.094;27.994;2023-07-31T03:22:18;85404.93;;;18.08;12.14
73974;BME280;62336;-26.094;27.994;2023-07-31T03:24:42;85408.14;;;17.82;12.07
73974;BME280;62336;-26.094;27.994;2023-07-31T03:27:07;85408.27;;;18.20;11.96
73974;BME280;62336;-26.094;27.994;2023-07-31T03:29:33;85413.24;;;18.05;12.03
73974;BME280;62336;-26.094;27.994;2023-07-31T03:31:58;85411.33;;;17.51;12.26
73974;BME280;62336;-26.094;27.994;2023-07-31T03:34:24;85410.44;;;17.83;12.10
73974;BME280;62336;-26.094;27.994;2023-07-31T03:36:49;85418.91;;;17.49;12.27
73974;BME280;62336;-26.094;27.994;2023-07-31T03:39:15;85421.15;;;17.01;12.51
73974;BME280;62336;-26.094;27.994;2023-07-31T03:41:40;85421.34;;;17.12;12.42
73974;BME280;62336;-26.094;27.994;2023-07-31T03:44:06;85421.96;;;16.91;12.40
73974;BME280;62336;-26.094;27.994;2023-07-31T03:46:32;85425.12;;;17.62;12.36
73974;BME280;62336;-26.094;27.994;2023-07-31T03:48:57;85427.22;;;17.64;12.19
73974;BME280;62336;-26.094;27.994;2023-07-31T03:51:22;85430.06;;;17.50;12.25
73974;BME280;62336;-26.094;27.994;2023-07-31T03:53:47;85427.93;;;17.83;12.08
73974;BME280;62336;-26.094;27.994;2023-07-31T03:56:13;85428.01;;;17.89;11.87
73974;BME280;62336;-26.094;27.994;2023-07-31T03:58:38;85432.13;;;17.74;12.07
73974;BME280;62336;-26.094;27.994;2023-07-31T04:01:03;85432.72;;;17.56;12.10
73974;BME280;62336;-26.094;27.994;2023-07-31T04:03:29;85430.91;;;18.12;11.81
73974;BME280;62336;-26.094;27.994;2023-07-31T04:05:54;85433.50;;;17.26;12.12
73974;BME280;62336;-26.094;27.994;2023-07-31T04:08:19;85437.79;;;17.29;12.36
73974;BME280;62336;-26.094;27.994;2023-07-31T04:10:44;85445.72;;;17.03;12.18
73974;BME280;62336;-26.094;27.994;2023-07-31T04:13:09;85452.70;;;17.29;12.16
73974;BME280;62336;-26.094;27.994;2023-07-31T04:15:36;85456.37;;;17.50;12.20
73974;BME280;62336;-26.094;27.994;2023-07-31T04:18:01;85462.78;;;16.64;12.50
73974;BME280;62336;-26.094;27.994;2023-07-31T04:20:26;85464.24;;;17.03;12.41
73974;BME280;62336;-26.094;27.994;2023-07-31T04:22:52;85471.29;;;17.72;12.31
73974;BME280;62336;-26.094;27.994;2023-07-31T04:25:17;85470.38;;;17.82;12.04
73974;BME280;62336;-26.094;27.994;2023-07-31T04:27:43;85468.43;;;17.98;11.82
73974;BME280;62336;-26.094;27.994;2023-07-31T04:30:09;85472.58;;;16.91;12.11
73974;BME280;62336;-26.094;27.994;2023-07-31T04:32:34;85473.61;;;17.57;12.08
73974;BME280;62336;-26.094;27.994;2023-07-31T04:34:59;85473.77;;;17.49;12.07
73974;BME280;62336;-26.094;27.994;2023-07-31T04:37:25;85473.82;;;17.26;12.19
73974;BME280;62336;-26.094;27.994;2023-07-31T04:39:51;85478.80;;;17.51;12.46
73974;BME280;62336;-26.094;27.994;2023-07-31T04:42:16;85478.04;;;16.71;12.49
73974;BME280;62336;-26.094;27.994;2023-07-31T04:44:42;85478.85;;;17.40;12.32
73974;BME280;62336;-26.094;27.994;2023-07-31T04:47:08;85481.72;;;17.70;12.01
73974;BME280;62336;-26.094;27.994;2023-07-31T04:49:33;85481.71;;;17.67;12.14
73974;BME280;62336;-26.094;27.994;2023-07-31T04:51:59;85481.54;;;16.70;12.22
73974;BME280;62336;-26.094;27.994;2023-07-31T04:54:24;85482.92;;;17.23;12.35
73974;BME280;62336;-26.094;27.994;2023-07-31T04:56:49;85484.44;;;17.28;12.27
73974;BME280;62336;-26.094;27.994;2023-07-31T04:59:15;85479.72;;;18.00;11.98
73974;BME280;62336;-26.094;27.994;2023-07-31T05:01:40;85486.36;;;17.53;12.02
73974;BME280;62336;-26.094;27.994;2023-07-31T05:04:05;85484.79;;;16.66;12.34
73974;BME280;62336;-26.094;27.994;2023-07-31T05:06:30;85487.45;;;17.31;12.36
73974;BME280;62336;-26.094;27.994;2023-07-31T05:08:55;85491.56;;;17.09;12.44
73974;BME280;62336;-26.094;27.994;2023-07-31T05:11:20;85494.94;;;17.05;12.28
73974;BME280;62336;-26.094;27.994;2023-07-31T05:13:46;85500.39;;;17.38;12.23
73974;BME280;62336;-26.094;27.994;2023-07-31T05:16:11;85502.49;;;16.84;12.61
73974;BME280;62336;-26.094;27.994;2023-07-31T05:18:37;85507.02;;;16.97;12.63
73974;BME280;62336;-26.094;27.994;2023-07-31T05:21:04;85510.07;;;16.61;12.49
73974;BME280;62336;-26.094;27.994;2023-07-31T05:23:28;85510.86;;;16.35;12.57
73974;BME280;62336;-26.094;27.994;2023-07-31T05:25:53;85514.85;;;17.48;12.28
73974;BME280;62336;-26.094;27.994;2023-07-31T05:28:18;85517.45;;;16.73;12.42
73974;BME280;62336;-26.094;27.994;2023-07-31T05:30:44;85515.22;;;17.01;12.53
73974;BME280;62336;-26.094;27.994;2023-07-31T05:33:09;85517.13;;;16.72;12.86
73974;BME280;62336;-26.094;27.994;2023-07-31T05:35:36;85529.66;;;17.18;12.56
73974;BME280;62336;-26.094;27.994;2023-07-31T05:38:00;85528.30;;;16.77;12.82
73974;BME280;62336;-26.094;27.994;2023-07-31T05:40:26;85533.52;;;17.48;12.45
73974;BME280;62336;-26.094;27.994;2023-07-31T05:42:51;85535.35;;;17.43;12.32
73974;BME280;62336;-26.094;27.994;2023-07-31T05:45:16;85534.25;;;18.04;12.21
73974;BME280;62336;-26.094;27.994;2023-07-31T05:47:41;85530.62;;;17.63;12.17
73974;BME280;62336;-26.094;27.994;2023-07-31T05:50:06;85532.78;;;18.17;11.82
73974;BME280;62336;-26.094;27.994;2023-07-31T05:52:31;85533.08;;;18.38;11.92
73974;BME280;62336;-26.094;27.994;2023-07-31T05:54:56;85537.30;;;18.13;11.85
73974;BME280;62336;-26.094;27.994;2023-07-31T05:57:21;85541.12;;;18.51;11.92
73974;BME280;62336;-26.094;27.994;2023-07-31T05:59:48;85541.88;;;18.07;12.02
73974;BME280;62336;-26.094;27.994;2023-07-31T06:02:12;85539.92;;;17.80;12.04
73974;BME280;62336;-26.094;27.994;2023-07-31T06:04:38;85546.03;;;18.23;11.89
73974;BME280;62336;-26.094;27.994;2023-07-31T06:07:03;85548.17;;;18.82;11.47
73974;BME280;62336;-26.094;27.994;2023-07-31T06:09:28;85550.18;;;18.78;11.37
73974;BME280;62336;-26.094;27.994;2023-07-31T06:11:53;85560.90;;;18.15;11.78
73974;BME280;62336;-26.094;27.994;2023-07-31T06:14:18;85560.38;;;18.58;11.60
73974;BME280;62336;-26.094;27.994;2023-07-31T06:16:43;85560.90;;;18.93;11.39
73974;BME280;62336;-26.094;27.994;2023-07-31T06:19:08;85566.64;;;19.03;11.43
73974;BME280;62336;-26.094;27.994;2023-07-31T06:21:33;85566.25;;;19.03;11.29
73974;BME280;62336;-26.094;27.994;2023-07-31T06:23:59;85564.11;;;18.67;11.69
73974;BME280;62336;-26.094;27.994;2023-07-31T06:26:24;85563.38;;;18.38;11.84
73974;BME280;62336;-26.094;27.994;2023-07-31T06:28:49;85563.18;;;18.93;11.94
73974;BME280;62336;-26.094;27.994;2023-07-31T06:31:14;85567.73;;;18.33;11.63
73974;BME280;62336;-26.094;27.994;2023-07-31T06:33:39;85568.89;;;19.34;11.50
73974;BME280;62336;-26.094;27.994;2023-07-31T06:36:04;85566.47;;;19.38;11.20
73974;BME280;62336;-26.094;27.994;2023-07-31T06:38:29;85566.94;;;19.50;11.33
73974;BME280;62336;-26.094;27.994;2023-07-31T06:40:54;85573.14;;;19.28;11.42
73974;BME280;62336;-26.094;27.994;2023-07-31T06:43:20;85575.41;;;19.00;11.32
73974;BME280;62336;-26.094;27.994;2023-07-31T06:45:45;85576.17;;;19.99;11.05
73974;BME280;62336;-26.094;27.994;2023-07-31T06:48:10;85571.20;;;19.78;10.97
73974;BME280;62336;-26.094;27.994;2023-07-31T06:50:35;85574.79;;;19.94;10.86
73974;BME280;62336;-26.094;27.994;2023-07-31T06:53:00;85576.96;;;19.76;11.19
73974;BME280;62336;-26.094;27.994;2023-07-31T06:55:26;85570.93;;;20.41;10.92
73974;BME280;62336;-26.094;27.994;2023-07-31T06:57:52;85573.61;;;20.18;11.00
73974;BME280;62336;-26.094;27.994;2023-07-31T07:00:17;85572.10;;;19.96;11.01
73974;BME280;62336;-26.094;27.994;2023-07-31T07:02:41;85574.61;;;20.22;10.85
73974;BME280;62336;-26.094;27.994;2023-07-31T07:05:13;85573.85;;;20.36;10.72
73974;BME280;62336;-26.094;27.994;2023-07-31T07:07:38;85571.32;;;20.41;10.72
73974;BME280;62336;-26.094;27.994;2023-07-31T07:09:57;85577.52;;;20.90;9.95
73974;BME280;62336;-26.094;27.994;2023-07-31T07:12:22;85577.80;;;20.84;10.34
73974;BME280;62336;-26.094;27.994;2023-07-31T07:14:48;85577.22;;;21.21;10.05
73974;BME280;62336;-26.094;27.994;2023-07-31T07:17:13;85578.63;;;21.28;9.97
73974;BME280;62336;-26.094;27.994;2023-07-31T07:19:40;85583.71;;;21.23;10.11
73974;BME280;62336;-26.094;27.994;2023-07-31T07:22:03;85586.43;;;20.66;10.30
73974;BME280;62336;-26.094;27.994;2023-07-31T07:24:28;85590.82;;;21.46;10.33
73974;BME280;62336;-26.094;27.994;2023-07-31T07:26:53;85596.31;;;21.48;10.01
73974;BME280;62336;-26.094;27.994;2023-07-31T07:29:18;85603.91;;;21.34;10.53
73974;BME280;62336;-26.094;27.994;2023-07-31T07:31:44;85607.10;;;21.60;9.91
73974;BME280;62336;-26.094;27.994;2023-07-31T07:34:10;85614.80;;;21.99;10.00
73974;BME280;62336;-26.094;27.994;2023-07-31T07:36:35;85617.12;;;21.98;10.00
73974;BME280;62336;-26.094;27.994;2023-07-31T07:39:00;85615.30;;;21.46;10.20
73974;BME280;62336;-26.094;27.994;2023-07-31T07:41:26;85619.84;;;21.90;10.26
73974;BME280;62336;-26.094;27.994;2023-07-31T07:43:50;85618.74;;;21.90;10.01
73974;BME280;62336;-26.094;27.994;2023-07-31T07:46:16;85621.80;;;21.93;9.98
73974;BME280;62336;-26.094;27.994;2023-07-31T07:48:41;85620.73;;;22.17;10.06
73974;BME280;62336;-26.094;27.994;2023-07-31T07:51:06;85625.73;;;22.90;9.79
73974;BME280;62336;-26.094;27.994;2023-07-31T07:53:32;85626.84;;;23.11;9.17
73974;BME280;62336;-26.094;27.994;2023-07-31T07:55:57;85623.58;;;22.84;9.08
73974;BME280;62336;-26.094;27.994;2023-07-31T07:58:23;85623.42;;;22.90;9.32
73974;BME280;62336;-26.094;27.994;2023-07-31T08:00:50;85620.25;;;22.59;9.57
73974;BME280;62336;-26.094;27.994;2023-07-31T08:03:13;85617.39;;;22.77;9.27
73974;BME280;62336;-26.094;27.994;2023-07-31T08:05:38;85618.31;;;22.82;9.19
73974;BME280;62336;-26.094;27.994;2023-07-31T08:08:03;85621.30;;;22.93;9.12
73974;BME280;62336;-26.094;27.994;2023-07-31T08:10:28;85619.72;;;23.22;9.04
73974;BME280;62336;-26.094;27.994;2023-07-31T08:12:53;85621.00;;;23.55;9.00
73974;BME280;62336;-26.094;27.994;2023-07-31T08:15:18;85621.31;;;22.72;9.62
73974;BME280;62336;-26.094;27.994;2023-07-31T08:17:43;85619.64;;;22.87;9.08
73974;BME280;62336;-26.094;27.994;2023-07-31T08:20:10;85620.40;;;23.38;9.10
73974;BME280;62336;-26.094;27.994;2023-07-31T08:22:33;85620.09;;;23.57;8.85
73974;BME280;62336;-26.094;27.994;2023-07-31T08:24:59;85620.05;;;23.49;9.38
73974;BME280;62336;-26.094;27.994;2023-07-31T08:27:24;85620.51;;;23.32;8.92
73974;BME280;62336;-26.094;27.994;2023-07-31T08:29:49;85619.31;;;23.56;8.89
73974;BME280;62336;-26.094;27.994;2023-07-31T08:32:14;85617.49;;;23.64;9.10
73974;BME280;62336;-26.094;27.994;2023-07-31T08:34:39;85619.59;;;23.74;8.86
73974;BME280;62336;-26.094;27.994;2023-07-31T08:37:05;85614.72;;;23.99;8.64
73974;BME280;62336;-26.094;27.994;2023-07-31T08:39:29;85617.73;;;23.95;8.90
73974;BME280;62336;-26.094;27.994;2023-07-31T08:41:58;85618.32;;;24.63;8.74
73974;BME280;62336;-26.094;27.994;2023-07-31T08:44:19;85614.99;;;24.57;8.71
73974;BME280;62336;-26.094;27.994;2023-07-31T08:46:46;85611.26;;;24.60;9.21
73974;BME280;62336;-26.094;27.994;2023-07-31T08:49:11;85614.07;;;24.51;8.95
73974;BME280;62336;-26.094;27.994;2023-07-31T08:51:35;85615.18;;;24.60;8.83
73974;BME280;62336;-26.094;27.994;2023-07-31T08:54:00;85611.14;;;24.36;9.00
73974;BME280;62336;-26.094;27.994;2023-07-31T08:56:26;85613.44;;;24.71;9.00
73974;BME280;62336;-26.094;27.994;2023-07-31T08:58:50;85616.96;;;25.03;8.45
73974;BME280;62336;-26.094;27.994;2023-07-31T09:01:15;85616.77;;;25.13;8.55
73974;BME280;62336;-26.094;27.994;2023-07-31T09:03:41;85604.94;;;25.01;8.44
73974;BME280;62336;-26.094;27.994;2023-07-31T09:06:05;85600.99;;;25.03;8.44
73974;BME280;62336;-26.094;27.994;2023-07-31T09:08:31;85600.81;;;25.47;8.36
73974;BME280;62336;-26.094;27.994;2023-07-31T09:11:00;85596.76;;;25.47;8.13
73974;BME280;62336;-26.094;27.994;2023-07-31T09:13:20;85590.87;;;25.43;8.77
73974;BME280;62336;-26.094;27.994;2023-07-31T09:15:46;85590.84;;;25.52;8.50
73974;BME280;62336;-26.094;27.994;2023-07-31T09:18:11;85585.61;;;25.24;8.14
73974;BME280;62336;-26.094;27.994;2023-07-31T09:20:36;85576.42;;;25.93;8.33
73974;BME280;62336;-26.094;27.994;2023-07-31T09:23:05;85567.83;;;25.44;8.28
73974;BME280;62336;-26.094;27.994;2023-07-31T09:25:26;85565.48;;;25.87;7.98
73974;BME280;62336;-26.094;27.994;2023-07-31T09:27:52;85565.09;;;25.90;8.19
73974;BME280;62336;-26.094;27.994;2023-07-31T09:30:16;85565.78;;;25.63;7.96
73974;BME280;62336;-26.094;27.994;2023-07-31T09:32:42;85561.74;;;26.00;8.07
73974;BME280;62336;-26.094;27.994;2023-07-31T09:37:31;85559.16;;;25.97;7.83
73974;BME280;62336;-26.094;27.994;2023-07-31T09:39:56;85559.32;;;26.20;8.10
73974;BME280;62336;-26.094;27.994;2023-07-31T09:42:25;85555.07;;;25.83;8.27
73974;BME280;62336;-26.094;27.994;2023-07-31T09:44:46;85554.88;;;26.19;8.12
73974;BME280;62336;-26.094;27.994;2023-07-31T09:47:21;85547.17;;;26.16;7.43
73974;BME280;62336;-26.094;27.994;2023-07-31T09:49:37;85546.42;;;26.14;8.05
73974;BME280;62336;-26.094;27.994;2023-07-31T09:52:01;85543.58;;;26.36;7.98
73974;BME280;62336;-26.094;27.994;2023-07-31T09:54:26;85542.74;;;26.31;8.03
73974;BME280;62336;-26.094;27.994;2023-07-31T09:56:51;85535.93;;;26.31;7.41
73974;BME280;62336;-26.094;27.994;2023-07-31T09:59:18;85528.43;;;26.29;7.71
73974;BME280;62336;-26.094;27.994;2023-07-31T10:01:44;85526.55;;;26.32;7.78
73974;BME280;62336;-26.094;27.994;2023-07-31T10:04:08;85524.26;;;26.44;7.65
73974;BME280;62336;-26.094;27.994;2023-07-31T10:06:34;85525.01;;;26.88;7.56
73974;BME280;62336;-26.094;27.994;2023-07-31T10:08:58;85518.07;;;26.40;7.45
73974;BME280;62336;-26.094;27.994;2023-07-31T10:11:23;85510.74;;;26.84;7.32
73974;BME280;62336;-26.094;27.994;2023-07-31T10:13:48;85511.16;;;26.92;7.84
73974;BME280;62336;-26.094;27.994;2023-07-31T10:16:13;85501.36;;;26.65;7.79
73974;BME280;62336;-26.094;27.994;2023-07-31T10:18:39;85503.63;;;26.92;7.71
73974;BME280;62336;-26.094;27.994;2023-07-31T10:21:03;85502.26;;;26.81;7.54
73974;BME280;62336;-26.094;27.994;2023-07-31T10:23:29;85489.79;;;26.79;7.49
73974;BME280;62336;-26.094;27.994;2023-07-31T10:25:55;85487.36;;;26.61;7.37
73974;BME280;62336;-26.094;27.994;2023-07-31T10:28:18;85484.51;;;26.90;7.54
73974;BME280;62336;-26.094;27.994;2023-07-31T10:30:45;85477.43;;;27.49;7.60
73974;BME280;62336;-26.094;27.994;2023-07-31T10:33:10;85480.33;;;27.42;7.28
73974;BME280;62336;-26.094;27.994;2023-07-31T10:35:35;85478.99;;;27.06;7.37
73974;BME280;62336;-26.094;27.994;2023-07-31T10:38:10;85470.47;;;26.61;6.86
73974;BME280;62336;-26.094;27.994;2023-07-31T10:40:26;85467.80;;;27.53;6.88
73974;BME280;62336;-26.094;27.994;2023-07-31T10:42:52;85474.84;;;27.49;6.55
73974;BME280;62336;-26.094;27.994;2023-07-31T10:45:25;85468.22;;;27.93;6.81
73974;BME280;62336;-26.094;27.994;2023-07-31T10:47:44;85459.48;;;27.86;6.61
73974;BME280;62336;-26.094;27.994;2023-07-31T10:50:16;85459.27;;;27.74;7.35
73974;BME280;62336;-26.094;27.994;2023-07-31T10:52:35;85453.26;;;27.16;6.83
73974;BME280;62336;-26.094;27.994;2023-07-31T10:57:22;85442.26;;;27.68;7.35
73974;BME280;62336;-26.094;27.994;2023-07-31T10:59:47;85443.28;;;28.02;6.93
73974;BME280;62336;-26.094;27.994;2023-07-31T11:04:38;85437.83;;;27.71;7.15
73974;BME280;62336;-26.094;27.994;2023-07-31T11:07:03;85429.83;;;27.28;7.06
73974;BME280;62336;-26.094;27.994;2023-07-31T11:09:29;85428.29;;;27.65;6.55
73974;BME280;62336;-26.094;27.994;2023-07-31T11:11:53;85426.25;;;27.77;6.93
73974;BME280;62336;-26.094;27.994;2023-07-31T11:14:18;85426.02;;;27.24;7.06
73974;BME280;62336;-26.094;27.994;2023-07-31T11:16:43;85418.75;;;27.90;7.01
73974;BME280;62336;-26.094;27.994;2023-07-31T11:19:09;85422.99;;;28.19;6.92
73974;BME280;62336;-26.094;27.994;2023-07-31T11:21:33;85419.87;;;27.54;6.94
73974;BME280;62336;-26.094;27.994;2023-07-31T11:23:58;85416.86;;;27.60;7.73
73974;BME280;62336;-26.094;27.994;2023-07-31T11:26:24;85412.87;;;27.79;7.40
73974;BME280;62336;-26.094;27.994;2023-07-31T11:28:48;85408.18;;;28.09;6.36
73974;BME280;62336;-26.094;27.994;2023-07-31T11:31:13;85403.13;;;27.98;7.12
73974;BME280;62336;-26.094;27.994;2023-07-31T11:33:38;85398.93;;;28.69;6.62
73974;BME280;62336;-26.094;27.994;2023-07-31T11:36:03;85397.70;;;28.58;6.75
73974;BME280;62336;-26.094;27.994;2023-07-31T11:38:29;85397.98;;;28.49;6.73
73974;BME280;62336;-26.094;27.994;2023-07-31T11:40:53;85394.69;;;28.74;6.14
73974;BME280;62336;-26.094;27.994;2023-07-31T11:43:18;85392.96;;;28.48;6.22
73974;BME280;62336;-26.094;27.994;2023-07-31T11:45:46;85388.93;;;28.54;6.44
73974;BME280;62336;-26.094;27.994;2023-07-31T11:48:08;85386.78;;;28.36;6.70
73974;BME280;62336;-26.094;27.994;2023-07-31T11:50:34;85386.92;;;27.85;6.65
73974;BME280;62336;-26.094;27.994;2023-07-31T11:53:03;85383.34;;;28.16;6.75
73974;BME280;62336;-26.094;27.994;2023-07-31T11:55:24;85390.06;;;28.19;6.81
73974;BME280;62336;-26.094;27.994;2023-07-31T11:57:50;85392.64;;;27.90;7.78
73974;BME280;62336;-26.094;27.994;2023-07-31T12:00:15;85388.11;;;28.17;6.95
73974;BME280;62336;-26.094;27.994;2023-07-31T12:02:40;85386.20;;;28.15;6.76
73974;BME280;62336;-26.094;27.994;2023-07-31T12:05:05;85385.52;;;28.72;7.06
73974;BME280;62336;-26.094;27.994;2023-07-31T12:09:56;85387.86;;;28.71;6.40
73974;BME280;62336;-26.094;27.994;2023-07-31T12:12:21;85384.35;;;29.05;6.48
73974;BME280;62336;-26.094;27.994;2023-07-31T12:14:45;85377.69;;;29.05;6.41
73974;BME280;62336;-26.094;27.994;2023-07-31T12:17:10;85375.99;;;28.55;6.93
73974;BME280;62336;-26.094;27.994;2023-07-31T12:19:35;85374.00;;;28.72;7.38
73974;BME280;62336;-26.094;27.994;2023-07-31T12:22:01;85376.56;;;28.75;7.16
73974;BME280;62336;-26.094;27.994;2023-07-31T12:24:27;85382.23;;;29.02;7.00
73974;BME280;62336;-26.094;27.994;2023-07-31T12:26:50;85380.31;;;28.63;6.54
73974;BME280;62336;-26.094;27.994;2023-07-31T12:29:16;85383.90;;;29.16;6.34
73974;BME280;62336;-26.094;27.994;2023-07-31T12:31:42;85380.39;;;28.93;6.10
73974;BME280;62336;-26.094;27.994;2023-07-31T12:36:32;85380.05;;;28.86;6.00
73974;BME280;62336;-26.094;27.994;2023-07-31T12:38:58;85383.86;;;28.35;6.21
73974;BME280;62336;-26.094;27.994;2023-07-31T12:41:23;85377.17;;;28.22;6.46
73974;BME280;62336;-26.094;27.994;2023-07-31T12:43:48;85372.90;;;28.19;6.54
73974;BME280;62336;-26.094;27.994;2023-07-31T12:46:14;85375.98;;;28.26;6.38